createdAt,value
2023-03-11T00:11:10.190Z,2.68
2023-03-11T00:24:23.739Z,2.55
2023-03-11T00:30:12.609Z,2.65
2023-03-11T00:35:59.384Z,2.31
2023-03-11T00:41:46.384Z,2.31
2023-03-11T00:47:33.490Z,2.27
2023-03-11T00:53:25.686Z,2.20
2023-03-11T00:59:39.137Z,2.06
2023-03-11T01:05:54.549Z,2.08
2023-03-11T01:11:39.705Z,2.02
2023-03-11T01:17:49.200Z,2.05
2023-03-11T01:24:14.601Z,1.94
2023-03-11T01:30:31.104Z,1.68
2023-03-11T01:36:32.793Z,1.72
2023-03-11T01:42:38.422Z,1.78
2023-03-11T01:48:27.849Z,1.73
2023-03-11T01:54:23.194Z,1.81
2023-03-11T02:00:15.943Z,1.59
2023-03-11T02:06:06.965Z,1.67
2023-03-11T02:11:56.936Z,1.58
2023-03-11T02:17:44.903Z,1.51
2023-03-11T02:23:59.241Z,1.42
2023-03-11T02:29:49.825Z,1.57
2023-03-11T02:35:37.493Z,1.53
2023-03-11T02:41:24.631Z,1.44
2023-03-11T02:47:12.111Z,1.45
2023-03-11T02:52:59.081Z,1.37
2023-03-11T02:58:45.990Z,1.28
2023-03-11T03:04:32.893Z,0.64
2023-03-11T03:10:22.525Z,0.72
2023-03-11T03:16:10.135Z,0.71
2023-03-11T03:21:57.119Z,0.87
2023-03-11T03:27:44.590Z,0.73
2023-03-11T03:33:32.887Z,1.00
2023-03-11T03:39:20.369Z,0.74
2023-03-11T03:45:11.374Z,0.52
2023-03-11T03:51:06.451Z,0.63
2023-03-11T03:56:54.170Z,0.63
2023-03-11T04:02:42.527Z,0.76
2023-03-11T04:08:40.664Z,0.73
2023-03-11T04:14:29.424Z,0.83
2023-03-11T04:20:20.197Z,0.38
2023-03-11T04:26:09.950Z,0.58
2023-03-11T04:31:58.157Z,0.60
2023-03-11T04:37:44.817Z,0.73
2023-03-11T04:43:33.664Z,0.80
2023-03-11T04:49:20.760Z,0.80
2023-03-11T04:55:10.862Z,1.03
2023-03-11T05:00:57.824Z,1.10
2023-03-11T05:06:44.963Z,1.17
2023-03-11T05:12:33.770Z,1.33
2023-03-11T05:18:20.651Z,1.15
2023-03-11T05:24:08.910Z,0.98
2023-03-11T05:29:55.958Z,1.07
2023-03-11T05:35:44.670Z,1.33
2023-03-11T05:41:32.173Z,1.24
2023-03-11T05:47:22.739Z,1.42
2023-03-11T05:53:09.999Z,1.50
2023-03-11T05:58:58.565Z,1.37
2023-03-11T06:04:48.328Z,1.14
2023-03-11T06:10:36.052Z,1.42
2023-03-11T06:16:24.644Z,1.63
2023-03-11T06:22:16.804Z,1.62
2023-03-11T06:28:04.963Z,1.63
2023-03-11T06:33:53.436Z,1.77
2023-03-11T06:39:40.262Z,1.83
2023-03-11T06:45:28.813Z,1.77
2023-03-11T06:51:15.645Z,1.69
2023-03-11T06:57:02.670Z,1.59
2023-03-11T07:02:51.912Z,1.95
2023-03-11T07:08:39.132Z,1.89
2023-03-11T07:14:27.439Z,1.91
2023-03-11T07:20:16.795Z,2.01
2023-03-11T07:26:11.311Z,2.02
2023-03-11T07:31:58.329Z,2.28
2023-03-11T07:37:45.101Z,2.59
2023-03-11T07:43:33.121Z,2.70
2023-03-11T07:49:20.095Z,2.58
2023-03-11T07:55:07.069Z,2.53
2023-03-11T08:00:56.948Z,2.87
2023-03-11T08:06:46.951Z,3.13
2023-03-11T08:12:33.874Z,2.95
2023-03-11T08:18:20.628Z,3.96
2023-03-11T08:24:07.613Z,5.08
2023-03-11T08:29:54.287Z,5.08
2023-03-11T08:35:41.400Z,5.80
2023-03-11T08:41:28.762Z,5.49
2023-03-11T08:47:15.586Z,5.71
2023-03-11T08:53:05.409Z,6.43
2023-03-11T08:58:52.770Z,6.51
2023-03-11T09:04:39.627Z,6.41
2023-03-11T09:10:26.710Z,7.00
2023-03-11T09:16:24.640Z,6.92
2023-03-11T09:22:12.177Z,7.20
2023-03-11T09:28:00.016Z,7.60
2023-03-11T09:33:47.576Z,7.91
2023-03-11T09:39:47.398Z,7.92
2023-03-11T09:46:02.303Z,7.89
2023-03-11T09:52:25.412Z,8.35
2023-03-11T09:58:24.877Z,8.93
2023-03-11T10:04:24.738Z,8.67
2023-03-11T10:10:18.564Z,8.35
2023-03-11T10:16:13.102Z,8.72
2023-03-11T10:22:14.676Z,8.93
2023-03-11T10:28:13.794Z,9.21
2023-03-11T10:34:13.860Z,9.27
2023-03-11T10:40:21.005Z,9.42
2023-03-11T10:46:28.743Z,9.26
2023-03-11T10:52:16.897Z,9.37
2023-03-11T10:58:20.151Z,9.22
2023-03-11T11:04:27.627Z,9.21
2023-03-11T11:10:19.623Z,9.40
2023-03-11T11:16:21.257Z,9.23
2023-03-11T11:22:18.077Z,9.46
2023-03-11T11:28:17.927Z,9.23
2023-03-11T11:34:27.971Z,9.26
2023-03-11T11:40:16.097Z,9.45
2023-03-11T11:46:17.160Z,9.17
2023-03-11T11:52:11.349Z,9.44
2023-03-11T11:57:58.960Z,9.66
2023-03-11T12:03:55.396Z,9.65
2023-03-11T12:10:21.374Z,9.18
2023-03-11T12:16:35.690Z,9.42
2023-03-11T12:22:52.018Z,9.63
2023-03-11T12:29:01.302Z,9.70
2023-03-11T12:35:05.428Z,9.71
2023-03-11T12:41:06.712Z,9.92
2023-03-11T12:53:06.694Z,9.92
2023-03-11T12:59:49.444Z,9.71
2023-03-11T13:13:45.460Z,9.14
2023-03-11T13:19:35.611Z,8.97
2023-03-11T13:25:38.521Z,9.39
2023-03-11T13:31:47.224Z,9.33
2023-03-11T13:38:11.087Z,9.57
2023-03-11T13:44:05.397Z,9.51
2023-03-11T13:50:04.653Z,9.64
2023-03-11T13:55:52.209Z,9.72
2023-03-11T14:01:39.998Z,9.95
2023-03-11T14:07:30.905Z,9.81
2023-03-11T14:13:33.788Z,9.37
2023-03-11T14:19:22.495Z,9.42
2023-03-11T14:25:16.548Z,9.19
2023-03-11T14:31:04.465Z,9.16
2023-03-11T14:36:57.422Z,9.18
2023-03-11T14:42:50.106Z,8.73
2023-03-11T14:48:47.011Z,8.84
2023-03-11T14:54:55.294Z,8.68
2023-03-11T15:00:56.843Z,8.51
2023-03-11T15:07:01.062Z,8.38
2023-03-11T15:12:50.814Z,8.53
2023-03-11T15:18:38.625Z,8.67
2023-03-11T15:24:35.142Z,8.74
2023-03-11T15:30:27.200Z,8.53
2023-03-11T15:36:34.549Z,8.34
2023-03-11T15:42:25.062Z,8.56
2023-03-11T15:48:13.867Z,8.71
2023-03-11T15:54:08.169Z,8.32
2023-03-11T16:00:00.576Z,8.58
2023-03-11T16:05:51.393Z,8.52
2023-03-11T16:11:42.322Z,8.46
2023-03-11T16:17:46.719Z,8.26
2023-03-11T16:23:51.162Z,8.32
2023-03-11T16:29:59.875Z,8.31
2023-03-11T16:35:49.275Z,8.00
2023-03-11T16:41:45.314Z,8.26
2023-03-11T16:47:32.018Z,8.15
2023-03-11T16:53:20.109Z,8.04
2023-03-11T16:59:07.491Z,7.77
2023-03-11T17:04:54.744Z,7.57
2023-03-11T17:10:53.036Z,7.45
2023-03-11T17:16:45.956Z,7.26
2023-03-11T17:22:33.257Z,7.05
2023-03-11T17:28:22.654Z,6.82
2023-03-11T17:34:11.034Z,6.66
2023-03-11T17:40:01.225Z,6.57
2023-03-11T17:45:55.771Z,6.55
2023-03-11T17:51:42.696Z,6.28
2023-03-11T17:57:30.316Z,6.31
2023-03-11T18:04:14.222Z,6.20
2023-03-11T18:10:09.786Z,6.39
2023-03-11T18:16:01.611Z,6.31
2023-03-11T18:21:48.457Z,6.21
2023-03-11T18:27:36.908Z,5.89
2023-03-11T18:33:27.596Z,5.84
2023-03-11T18:39:14.479Z,5.58
2023-03-11T18:45:01.531Z,5.32
2023-03-11T18:50:52.892Z,5.24
2023-03-11T18:56:39.838Z,5.34
2023-03-11T19:02:27.518Z,5.31
2023-03-11T19:08:15.410Z,5.43
2023-03-11T19:14:02.427Z,5.35
2023-03-11T19:19:49.232Z,5.42
2023-03-11T19:25:36.672Z,5.43
2023-03-11T19:31:25.580Z,5.73
2023-03-11T19:37:13.317Z,5.30
2023-03-11T19:43:00.447Z,5.31
2023-03-11T19:48:47.459Z,5.37
2023-03-11T19:54:34.248Z,5.41
2023-03-11T20:00:23.941Z,5.19
2023-03-11T20:06:18.579Z,5.30
2023-03-11T20:12:06.037Z,5.22
2023-03-11T20:17:57.506Z,5.31
2023-03-11T20:23:45.352Z,5.49
2023-03-11T20:29:32.343Z,5.43
2023-03-11T20:35:20.946Z,5.70
2023-03-11T20:41:09.983Z,5.56
2023-03-11T20:46:57.093Z,5.81
2023-03-11T20:52:44.294Z,5.96
2023-03-11T20:58:31.405Z,6.17
2023-03-11T21:04:18.434Z,6.20
2023-03-11T21:10:07.939Z,6.38
2023-03-11T21:15:55.276Z,6.43
2023-03-11T21:21:43.809Z,6.32
2023-03-11T21:27:31.590Z,6.50
2023-03-11T21:33:18.522Z,6.55
2023-03-11T21:39:06.264Z,6.46
2023-03-11T21:44:54.235Z,6.52
2023-03-11T21:50:41.977Z,6.52
2023-03-11T21:56:30.205Z,6.55
2023-03-11T22:02:18.716Z,6.55
2023-03-11T22:08:09.394Z,6.52
2023-03-11T22:13:58.359Z,6.54
2023-03-11T22:19:52.136Z,6.42
2023-03-11T22:25:39.818Z,6.43
2023-03-11T22:41:28.541Z,6.67
2023-03-11T22:46:11.440Z,6.62
2023-03-11T22:51:58.204Z,6.64
2023-03-11T22:57:45.587Z,6.64
2023-03-11T23:03:33.709Z,6.62
2023-03-11T23:09:24.888Z,6.58
2023-03-11T23:15:15.166Z,6.58
2023-03-11T23:21:02.246Z,6.74
2023-03-11T23:26:48.951Z,6.85
2023-03-11T23:32:35.781Z,6.84
2023-03-11T23:38:22.771Z,7.02
2023-03-11T23:44:10.143Z,7.07
2023-03-11T23:49:56.970Z,7.21
2023-03-11T23:55:44.447Z,7.22
